Time;durP1;ratioP1;P1;durP2;ratioP2;P2;SDS_P1;SDS_P2;PMS_P1;PMS_P2;Temp;Humidity;BMP_temperature;BMP_pressure;BME280_temperature;BME280_humidity;BME280_pressure;Samples;Min_cycle;Max_cycle;Signal;HPM_P1;HPM_P2
2023/11/16 00:01:55;;;;;;;12.13;2.88;;;;;;;8.59;100.00;100852.63;6277797;28;20049;-83
2023/11/16 00:04:56;;;;;;;15.75;4.07;;;;;;;8.53;100.00;100842.41;6279044;28;20049;-84
2023/11/16 00:07:59;;;;;;;8.50;3.15;;;;;;;8.55;100.00;100852.81;6279151;28;20049;-84
2023/11/16 00:11:00;;;;;;;14.48;3.45;;;;;;;8.48;100.00;100860.06;6279339;28;20041;-82
2023/11/16 00:14:05;;;;;;;8.68;3.28;;;;;;;8.42;100.00;100862.97;6279225;28;20053;-83
2023/11/16 00:17:07;;;;;;;7.60;3.25;;;;;;;8.32;100.00;100859.00;6278633;28;20138;-81
2023/11/16 00:20:09;;;;;;;9.75;3.42;;;;;;;8.29;100.00;100853.91;6278748;28;20465;-82
2023/11/16 00:23:10;;;;;;;8.88;3.60;;;;;;;8.29;100.00;100864.38;6278625;28;20368;-82
2023/11/16 00:26:14;;;;;;;13.13;3.53;;;;;;;8.23;100.00;100847.16;6278836;28;20052;-82
2023/11/16 00:29:17;;;;;;;8.13;3.08;;;;;;;8.26;100.00;100849.63;6278506;28;20049;-82
2023/11/16 00:32:19;;;;;;;9.57;3.38;;;;;;;8.29;100.00;100849.50;6278471;28;20052;-82
2023/11/16 00:35:20;;;;;;;9.75;3.58;;;;;;;8.30;100.00;100837.25;6278895;28;20445;-81
2023/11/16 00:38:25;;;;;;;12.40;3.90;;;;;;;8.27;100.00;100850.50;6278061;28;20456;-83
2023/11/16 00:41:27;;;;;;;10.88;3.58;;;;;;;8.28;100.00;100833.88;6277712;28;20045;-82
2023/11/16 00:44:30;;;;;;;17.25;3.67;;;;;;;8.30;100.00;100853.81;6278099;28;20057;-80
2023/11/16 00:47:31;;;;;;;13.75;3.60;;;;;;;8.32;100.00;100848.53;6278306;28;20049;-83
2023/11/16 00:50:32;;;;;;;14.95;3.38;;;;;;;8.36;100.00;100852.75;6278189;28;20053;-81
2023/11/16 00:53:34;;;;;;;10.32;3.40;;;;;;;8.33;100.00;100843.22;6277903;28;20049;-82
2023/11/16 00:56:35;;;;;;;9.38;3.13;;;;;;;8.36;100.00;100839.66;6278484;28;20063;-82
2023/11/16 00:59:39;;;;;;;6.55;2.92;;;;;;;8.34;100.00;100834.44;6277654;28;20041;-82
2023/11/16 01:02:41;;;;;;;12.52;3.47;;;;;;;8.38;100.00;100845.69;6277732;28;20127;-83
2023/11/16 01:05:43;;;;;;;10.63;3.15;;;;;;;8.35;100.00;100846.63;6278505;28;20060;-81
2023/11/16 01:08:45;;;;;;;16.20;4.25;;;;;;;8.28;100.00;100833.88;6277596;28;20431;-82
2023/11/16 01:11:46;;;;;;;5.78;3.53;;;;;;;8.23;100.00;100831.44;6276420;28;20056;-80
2023/11/16 01:14:52;;;;;;;10.25;3.45;;;;;;;8.25;100.00;100831.38;6277717;28;20049;-80
2023/11/16 01:17:54;;;;;;;8.65;3.80;;;;;;;8.14;100.00;100827.44;6277613;28;20056;-81
2023/11/16 01:20:58;;;;;;;8.57;3.80;;;;;;;8.18;100.00;100835.19;6277596;28;20088;-80
2023/11/16 01:24:03;;;;;;;12.10;3.90;;;;;;;8.16;100.00;100847.47;6277844;28;20052;-81
2023/11/16 01:27:15;;;;;;;11.30;4.13;;;;;;;8.13;100.00;100846.69;6270690;28;20131;-80
2023/11/16 01:30:18;;;;;;;8.90;3.47;;;;;;;8.14;100.00;100837.06;6261701;28;20052;-82
2023/11/16 01:33:20;;;;;;;9.52;3.30;;;;;;;8.16;100.00;100835.22;6277145;28;20139;-82
2023/11/16 01:36:24;;;;;;;11.98;4.05;;;;;;;8.21;100.00;100840.28;6276791;28;20052;-82
2023/11/16 01:39:25;;;;;;;5.40;2.90;;;;;;;8.20;100.00;100838.56;6258200;28;20049;-80
2023/11/16 01:42:27;;;;;;;9.52;3.30;;;;;;;8.21;100.00;100851.59;6252111;28;20049;-83
2023/11/16 01:45:31;;;;;;;10.48;4.22;;;;;;;8.28;100.00;100841.72;6252091;28;20061;-80
2023/11/16 01:48:35;;;;;;;7.57;3.30;;;;;;;8.24;100.00;100842.78;6251963;28;20055;-82
2023/11/16 01:51:37;;;;;;;12.35;3.45;;;;;;;8.24;100.00;100853.25;6252302;28;20049;-80
2023/11/16 01:54:39;;;;;;;11.00;3.65;;;;;;;8.29;100.00;100840.81;6251849;28;20050;-80
2023/11/16 01:57:41;;;;;;;15.13;3.78;;;;;;;8.25;100.00;100841.84;6251852;28;20049;-82
2023/11/16 02:00:45;;;;;;;8.32;3.10;;;;;;;8.29;100.00;100848.66;6252129;28;20048;-82
2023/11/16 02:03:46;;;;;;;9.50;3.50;;;;;;;8.29;100.00;100844.28;6251551;28;20056;-81
2023/11/16 02:06:48;;;;;;;15.40;3.65;;;;;;;8.32;100.00;100840.69;6251509;28;20057;-82
2023/11/16 02:09:50;;;;;;;10.88;3.35;;;;;;;8.31;100.00;100842.47;6251441;28;20053;-82
2023/11/16 02:12:52;;;;;;;6.28;2.72;;;;;;;8.34;100.00;100830.97;6251317;28;20068;-83
2023/11/16 02:15:55;;;;;;;6.68;2.85;;;;;;;8.28;100.00;100821.63;6251667;28;20049;-82
2023/11/16 02:18:57;;;;;;;8.40;2.85;;;;;;;8.20;100.00;100830.72;6251401;28;20049;-83
2023/11/16 02:21:59;;;;;;;9.45;2.20;;;;;;;8.20;100.00;100825.50;6251218;28;20050;-83
2023/11/16 02:25:01;;;;;;;3.35;2.00;;;;;;;8.16;100.00;100839.63;6250961;28;20053;-81
2023/11/16 02:28:03;;;;;;;9.88;2.00;;;;;;;8.22;100.00;100835.00;6251302;28;20064;-83
2023/11/16 02:31:06;;;;;;;7.90;2.15;;;;;;;8.30;100.00;100835.50;6251101;28;20136;-83
2023/11/16 02:34:08;;;;;;;9.15;2.00;;;;;;;8.29;100.00;100825.94;6250918;28;20612;-83
2023/11/16 02:37:09;;;;;;;3.15;1.63;;;;;;;8.33;100.00;100826.66;6251022;28;20055;-82
2023/11/16 02:40:16;;;;;;;4.07;1.70;;;;;;;8.35;100.00;100844.00;6250864;28;20342;-84
2023/11/16 02:43:18;;;;;;;13.68;2.00;;;;;;;8.38;100.00;100835.22;6250702;28;20057;-83
2023/11/16 02:46:19;;;;;;;10.05;1.88;;;;;;;8.42;100.00;100835.94;6251350;28;20056;-83
2023/11/16 02:49:20;;;;;;;3.88;1.42;;;;;;;8.42;100.00;100835.94;6251169;28;20046;-83
2023/11/16 02:52:22;;;;;;;7.10;1.92;;;;;;;8.43;100.00;100830.63;6250705;28;20057;-84
2023/11/16 02:55:25;;;;;;;5.05;1.58;;;;;;;8.45;100.00;100841.03;6250898;28;20055;-82
2023/11/16 02:58:26;;;;;;;9.38;1.50;;;;;;;8.41;100.00;100829.00;6250638;28;20053;-83
2023/11/16 03:01:28;;;;;;;6.20;1.10;;;;;;;8.40;100.00;100846.47;6250690;28;20057;-81
2023/11/16 03:04:30;;;;;;;3.83;1.02;;;;;;;8.43;100.00;100835.00;6250476;28;20052;-82
2023/11/16 03:07:32;;;;;;;3.85;0.63;;;;;;;8.50;100.00;100836.47;6250412;28;20060;-81
2023/11/16 03:10:37;;;;;;;8.63;1.27;;;;;;;8.45;100.00;100827.94;6250445;28;20049;-81
2023/11/16 03:13:38;;;;;;;8.00;1.08;;;;;;;8.38;100.00;100822.13;6250707;28;20056;-84
2023/11/16 03:16:44;;;;;;;4.82;0.50;;;;;;;8.37;100.00;100823.88;6250302;28;20107;-81
2023/11/16 03:19:46;;;;;;;0.30;0.30;;;;;;;8.30;100.00;100830.25;6250322;28;20437;-81
2023/11/16 03:22:47;;;;;;;3.47;0.60;;;;;;;8.28;100.00;100821.63;6255554;28;20056;-82
2023/11/16 03:25:50;;;;;;;2.03;0.93;;;;;;;8.28;100.00;100831.25;6282936;28;20057;-81
2023/11/16 03:28:52;;;;;;;4.07;0.50;;;;;;;8.31;100.00;100828.50;6252795;28;20053;-85
2023/11/16 03:31:53;;;;;;;2.15;0.70;;;;;;;8.35;100.00;100828.28;6257688;28;20120;-83
2023/11/16 03:34:54;;;;;;;4.68;1.65;;;;;;;8.32;100.00;100833.69;6250923;28;20060;-83
2023/11/16 03:37:56;;;;;;;5.55;0.70;;;;;;;8.38;100.00;100840.44;6269361;28;20055;-83
2023/11/16 03:40:58;;;;;;;5.82;0.70;;;;;;;8.36;100.00;100843.16;6279906;28;20048;-82
2023/11/16 03:44:00;;;;;;;2.30;1.10;;;;;;;8.36;100.00;100850.13;6280001;28;20429;-81
2023/11/16 03:47:01;;;;;;;2.55;0.65;;;;;;;8.20;100.00;100864.75;6279391;28;20334;-83
2023/11/16 03:50:04;;;;;;;1.80;0.80;;;;;;;8.17;100.00;100854.41;6279503;28;20051;-82
2023/11/16 03:53:06;;;;;;;1.27;0.65;;;;;;;8.14;100.00;100871.09;6279333;28;20053;-84
2023/11/16 03:56:10;;;;;;;2.28;0.77;;;;;;;8.03;100.00;100870.69;6279442;28;20060;-81
2023/11/16 03:59:13;;;;;;;4.00;1.02;;;;;;;7.99;100.00;100871.72;6279211;28;20045;-82
2023/11/16 04:02:14;;;;;;;1.90;0.75;;;;;;;7.99;100.00;100872.56;6279122;28;20041;-82
2023/11/16 04:05:18;;;;;;;2.25;1.00;;;;;;;7.91;100.00;100874.66;6279087;28;20057;-79
2023/11/16 04:08:19;;;;;;;3.50;1.10;;;;;;;7.89;100.00;100874.69;6278813;28;20053;-81
2023/11/16 04:11:22;;;;;;;1.95;1.13;;;;;;;7.91;100.00;100884.28;6278882;28;20045;-79
2023/11/16 04:14:23;;;;;;;1.90;1.20;;;;;;;7.91;100.00;100892.97;6278674;28;20052;-82
2023/11/16 04:17:26;;;;;;;3.13;1.13;;;;;;;7.90;100.00;100893.88;6278379;28;20076;-80
2023/11/16 04:20:29;;;;;;;2.65;1.15;;;;;;;7.92;100.00;100886.81;6278546;28;20425;-80
2023/11/16 04:23:31;;;;;;;2.35;0.90;;;;;;;7.87;100.00;100892.25;6278750;28;20123;-82
2023/11/16 04:26:36;;;;;;;4.80;1.42;;;;;;;7.81;100.00;100892.50;6278511;28;20045;-80
2023/11/16 04:29:38;;;;;;;4.40;0.90;;;;;;;7.83;100.00;100892.41;6278391;28;20052;-81
2023/11/16 04:32:42;;;;;;;5.10;1.67;;;;;;;7.79;100.00;100894.31;6278174;28;20056;-81
2023/11/16 04:35:44;;;;;;;2.30;0.95;;;;;;;7.85;100.00;100893.19;6278648;28;20056;-83
2023/11/16 04:38:45;;;;;;;2.45;0.80;;;;;;;7.82;100.00;100898.56;6278467;28;20056;-82
2023/11/16 04:41:49;;;;;;;6.85;1.13;;;;;;;7.87;100.00;100909.69;6278104;28;20049;-82
2023/11/16 04:44:50;;;;;;;2.88;1.00;;;;;;;7.83;100.00;100908.97;6278152;28;20452;-81
2023/11/16 04:47:52;;;;;;;3.75;1.23;;;;;;;7.86;100.00;100906.25;6277966;28;20049;-81
2023/11/16 04:50:55;;;;;;;10.70;1.20;;;;;;;7.97;100.00;100912.81;6278070;28;20060;-81
2023/11/16 04:53:57;;;;;;;4.43;1.10;;;;;;;7.89;100.00;100916.56;6278114;28;20064;-81
2023/11/16 04:57:00;;;;;;;4.18;0.95;;;;;;;7.83;100.00;100908.97;6277895;28;20060;-80
2023/11/16 05:00:06;;;;;;;5.93;0.90;;;;;;;7.72;100.00;100911.16;6277651;28;20135;-78
2023/11/16 05:03:07;;;;;;;7.03;0.90;;;;;;;7.70;100.00;100926.06;6277784;28;20449;-80
2023/11/16 05:06:09;;;;;;;10.93;1.20;;;;;;;7.63;100.00;100924.59;6277436;28;20053;-81
2023/11/16 05:09:11;;;;;;;6.95;1.67;;;;;;;7.63;100.00;100927.22;6277387;28;20361;-80
2023/11/16 05:12:13;;;;;;;6.03;0.80;;;;;;;7.58;100.00;100922.13;6277398;28;20045;-81
2023/11/16 05:15:16;;;;;;;1.35;0.90;;;;;;;7.52;100.00;100929.38;6277643;28;20049;-80
2023/11/16 05:18:18;;;;;;;7.60;1.63;;;;;;;7.56;100.00;100930.97;6260684;28;20056;-81
2023/11/16 05:21:19;;;;;;;0.55;0.52;;;;;;;7.56;100.00;100925.72;6252720;28;20049;-81
2023/11/16 05:24:20;;;;;;;1.38;0.30;;;;;;;7.51;100.00;100938.13;6282341;28;20060;-80
2023/11/16 05:27:26;;;;;;;3.00;0.43;;;;;;;7.51;100.00;100941.59;6284239;28;20347;-82
2023/11/16 05:30:28;;;;;;;3.83;0.60;;;;;;;7.40;100.00;100941.13;6258788;28;20100;-80
2023/11/16 05:33:30;;;;;;;7.63;0.40;;;;;;;7.37;100.00;100955.19;6271489;28;20055;-81
2023/11/16 05:36:32;;;;;;;0.85;0.20;;;;;;;7.28;100.00;100958.13;6271588;28;20063;-82
2023/11/16 05:39:33;;;;;;;7.43;0.45;;;;;;;7.31;100.00;100952.81;6252114;28;20072;-83
2023/11/16 05:42:36;;;;;;;0.30;0.30;;;;;;;7.20;100.00;100957.56;6252031;28;20046;-83
2023/11/16 05:45:39;;;;;;;1.27;0.38;;;;;;;7.28;100.00;100963.34;6252030;28;20365;-83
2023/11/16 05:48:41;;;;;;;1.27;0.40;;;;;;;7.14;100.00;100964.78;6252317;28;20052;-84
2023/11/16 05:51:42;;;;;;;7.65;0.43;;;;;;;7.04;100.00;100959.88;6251754;28;20057;-83
2023/11/16 05:54:46;;;;;;;1.08;0.43;;;;;;;7.05;100.00;100972.03;6252012;28;20195;-82
2023/11/16 05:57:49;;;;;;;3.72;0.40;;;;;;;6.99;100.00;100971.38;6251236;28;20057;-83
2023/11/16 06:00:51;;;;;;;0.32;0.20;;;;;;;7.00;100.00;100976.56;6251979;28;20052;-82
2023/11/16 06:03:53;;;;;;;1.17;0.30;;;;;;;6.91;100.00;100979.50;6251517;28;20053;-81
2023/11/16 06:06:55;;;;;;;1.70;0.45;;;;;;;7.01;100.00;100978.25;6279035;28;20045;-83
2023/11/16 06:09:56;;;;;;;8.93;0.50;;;;;;;7.07;100.00;100975.41;6263879;28;20440;-84
2023/11/16 06:13:00;;;;;;;0.73;0.40;;;;;;;6.96;100.00;100985.41;6253798;28;20053;-83
2023/11/16 06:16:02;;;;;;;0.52;0.32;;;;;;;6.98;100.00;100983.56;6251684;28;20049;-83
2023/11/16 06:19:05;;;;;;;1.35;0.50;;;;;;;6.97;100.00;100997.56;6274953;28;20048;-83
2023/11/16 06:22:06;;;;;;;4.10;0.40;;;;;;;6.98;100.00;101001.03;6276361;28;20128;-83
2023/11/16 06:25:10;;;;;;;0.70;0.43;;;;;;;6.86;100.00;101002.31;6281430;28;20051;-84
2023/11/16 06:28:12;;;;;;;3.08;0.47;;;;;;;6.98;100.00;101012.31;6278869;28;20041;-83
2023/11/16 06:31:14;;;;;;;2.95;0.40;;;;;;;6.90;100.00;101021.31;6259213;28;20361;-82
2023/11/16 06:34:15;;;;;;;0.25;0.22;;;;;;;6.92;100.00;101017.75;6282358;28;20052;-83
2023/11/16 06:37:17;;;;;;;4.10;0.50;;;;;;;6.90;100.00;101008.25;6267506;28;20055;-83
2023/11/16 06:40:19;;;;;;;2.47;0.82;;;;;;;7.01;100.00;101012.22;6276127;28;20049;-83
2023/11/16 06:43:23;;;;;;;3.25;0.35;;;;;;;6.91;100.00;101013.44;6260506;28;20041;-82
2023/11/16 06:46:27;;;;;;;1.58;0.93;;;;;;;6.86;100.00;101008.38;6275420;28;20079;-83
2023/11/16 06:49:28;;;;;;;4.00;0.47;;;;;;;6.85;100.00;101013.63;6275616;28;20124;-84
2023/11/16 06:52:30;;;;;;;0.10;0.10;;;;;;;6.84;100.00;101015.41;6275586;28;20041;-82
2023/11/16 06:55:32;;;;;;;7.47;0.70;;;;;;;6.85;100.00;101021.47;6275740;28;20049;-85
2023/11/16 06:58:35;;;;;;;1.08;0.22;;;;;;;6.70;100.00;101024.59;6275323;28;20045;-84
2023/11/16 07:01:36;;;;;;;4.25;0.40;;;;;;;6.64;100.00;101020.44;6275476;28;20040;-82
2023/11/16 07:04:41;;;;;;;1.05;0.38;;;;;;;6.62;100.00;101037.91;6275297;28;20056;-82
2023/11/16 07:07:42;;;;;;;0.85;0.28;;;;;;;6.48;100.00;101024.44;6275332;28;20049;-83
2023/11/16 07:10:43;;;;;;;1.88;0.65;;;;;;;6.50;100.00;101030.47;6278591;28;20059;-83
2023/11/16 07:13:46;;;;;;;2.22;0.60;;;;;;;6.47;100.00;101038.41;6280343;28;20049;-83
2023/11/16 07:16:48;;;;;;;1.10;0.38;;;;;;;6.45;100.00;101042.81;6266828;28;20437;-84
2023/11/16 07:19:49;;;;;;;5.15;0.55;;;;;;;6.49;100.00;101040.03;6269539;28;20045;-84
2023/11/16 07:22:51;;;;;;;6.45;0.40;;;;;;;6.54;100.00;101043.41;6270825;28;20448;-84
2023/11/16 07:25:53;;;;;;;0.68;0.20;;;;;;;6.47;100.00;101043.63;6280738;28;20429;-84
2023/11/16 07:28:56;;;;;;;0.20;0.20;;;;;;;6.32;100.00;101044.97;6285264;28;20052;-81
2023/11/16 07:31:57;;;;;;;4.72;0.28;;;;;;;6.23;100.00;101047.84;6293458;28;20448;-82
2023/11/16 07:34:59;;;;;;;3.35;0.80;;;;;;;6.08;100.00;101054.38;6269895;28;20346;-83
2023/11/16 07:38:00;;;;;;;4.20;0.35;;;;;;;6.18;100.00;101061.03;6267122;28;20049;-85
2023/11/16 07:41:02;;;;;;;3.90;0.60;;;;;;;6.27;100.00;101059.91;6262766;28;20049;-83
2023/11/16 07:44:06;;;;;;;4.80;1.55;;;;;;;6.26;100.00;101060.78;6263026;28;20057;-83
2023/11/16 07:47:08;;;;;;;0.28;0.28;;;;;;;6.25;100.00;101059.94;6260110;28;20136;-82
2023/11/16 07:50:12;;;;;;;3.55;0.50;;;;;;;6.27;100.00;101063.38;6258599;28;20434;-83
2023/11/16 07:53:14;;;;;;;2.38;0.70;;;;;;;6.20;100.00;101058.38;6263697;28;20083;-82
2023/11/16 07:56:17;;;;;;;3.92;0.80;;;;;;;6.18;100.00;101063.66;6259904;28;20052;-84
2023/11/16 07:59:25;;;;;;;1.88;0.57;;;;;;;6.16;100.00;101059.38;6266594;28;20045;-83
2023/11/16 08:03:41;;;;;;;3.00;0.38;;;;;;;6.14;100.00;101064.66;6279160;28;20352;-86
2023/11/16 08:05:48;;;;;;;1.85;0.40;;;;;;;6.29;100.00;101065.94;6279553;28;20063;-82
2023/11/16 08:08:49;;;;;;;4.95;0.47;;;;;;;6.26;100.00;101060.78;6279216;28;20068;-84
2023/11/16 08:11:53;;;;;;;4.60;0.63;;;;;;;6.30;100.00;101065.88;6279527;28;20072;-82
2023/11/16 08:14:56;;;;;;;3.20;0.35;;;;;;;6.32;100.00;101069.31;6279949;28;20053;-83
2023/11/16 08:17:58;;;;;;;1.20;0.40;;;;;;;6.32;100.00;101064.09;6271514;28;20055;-77
2023/11/16 08:21:00;;;;;;;3.70;0.50;;;;;;;6.37;100.00;101066.56;6269776;28;20049;-77
2023/11/16 08:24:01;;;;;;;3.83;0.45;;;;;;;6.38;100.00;101064.78;6267079;28;20045;-79
2023/11/16 08:27:03;;;;;;;0.88;0.43;;;;;;;6.42;100.00;101069.03;6270430;28;20045;-80
2023/11/16 08:30:08;;;;;;;0.77;0.50;;;;;;;6.45;100.00;101068.91;6271578;28;20045;-82
2023/11/16 08:33:11;;;;;;;0.40;0.38;;;;;;;6.50;100.00;101044.38;6267448;28;20052;-78
2023/11/16 08:36:15;;;;;;;1.17;0.40;;;;;;;6.54;100.00;101038.16;6270472;28;20056;-78
2023/11/16 08:39:17;;;;;;;3.60;0.65;;;;;;;6.61;100.00;101044.03;6270030;28;20048;-77
2023/11/16 08:42:23;;;;;;;7.68;0.60;;;;;;;6.57;100.00;101045.88;6269826;28;20449;-78
2023/11/16 08:45:26;;;;;;;0.20;0.20;;;;;;;6.49;100.00;101052.25;6269533;28;20053;-77
2023/11/16 08:48:33;;;;;;;2.05;0.57;;;;;;;6.52;100.00;101053.00;6277273;28;20457;-77
2023/11/16 08:51:35;;;;;;;0.55;0.30;;;;;;;6.55;100.00;101055.53;6277705;28;20055;-78
2023/11/16 08:54:36;;;;;;;1.42;0.52;;;;;;;6.57;100.00;101055.47;6277119;28;20338;-79
2023/11/16 08:57:39;;;;;;;2.25;0.70;;;;;;;6.66;100.00;101064.78;6271030;28;20063;-78
2023/11/16 09:00:45;;;;;;;1.38;0.98;;;;;;;6.68;100.00;101069.06;6261660;28;20045;-80
2023/11/16 09:03:49;;;;;;;4.07;0.82;;;;;;;6.71;100.00;101053.28;6269135;28;20132;-78
2023/11/16 09:06:50;;;;;;;3.95;0.47;;;;;;;6.73;100.00;101059.31;6277288;28;20037;-77
2023/11/16 09:09:52;;;;;;;0.55;0.38;;;;;;;6.76;100.00;101072.25;6269118;28;20052;-78
2023/11/16 09:12:55;;;;;;;1.33;0.60;;;;;;;6.83;100.00;101079.00;6277513;28;20053;-78
2023/11/16 09:15:57;;;;;;;2.00;0.60;;;;;;;7.04;100.00;101073.97;6271930;28;20045;-78
2023/11/16 09:18:59;;;;;;;0.88;0.45;;;;;;;7.11;100.00;101072.88;6274735;28;20459;-79
2023/11/16 09:22:02;;;;;;;1.02;0.40;;;;;;;7.00;100.00;101069.78;6277077;28;20049;-78
2023/11/16 09:25:07;;;;;;;2.83;0.60;;;;;;;6.98;100.00;101074.19;6277122;28;20519;-77
2023/11/16 09:28:11;;;;;;;3.20;1.00;;;;;;;7.02;100.00;101076.63;6264601;28;20453;-78
2023/11/16 09:31:14;;;;;;;2.78;0.52;;;;;;;7.02;100.00;101075.78;6276400;28;20135;-78
2023/11/16 09:34:16;;;;;;;1.35;0.50;;;;;;;7.07;100.00;101066.88;6267468;28;20203;-78
2023/11/16 09:37:18;;;;;;;0.35;0.35;;;;;;;7.06;100.00;101069.56;6276628;28;20340;-78
2023/11/16 09:40:21;;;;;;;6.32;0.65;;;;;;;7.12;100.00;101071.94;6268478;28;20052;-77
2023/11/16 09:43:28;;;;;;;0.73;0.32;;;;;;;7.17;100.00;101072.66;6268850;28;20353;-78
2023/11/16 09:46:33;;;;;;;1.35;0.30;;;;;;;7.28;100.00;101077.53;6276720;28;20345;-79
2023/11/16 09:49:35;;;;;;;15.07;4.15;;;;;;;7.35;100.00;101077.25;6276498;28;20186;-79
2023/11/16 09:52:39;;;;;;;2.13;0.52;;;;;;;7.38;100.00;101078.91;6276496;28;20051;-80
2023/11/16 09:55:44;;;;;;;0.73;0.45;;;;;;;7.40;100.00;101081.47;6276535;28;20052;-79
2023/11/16 09:58:47;;;;;;;1.95;0.60;;;;;;;7.52;100.00;101078.44;6276441;28;20045;-79
2023/11/16 10:01:59;;;;;;;0.77;0.30;;;;;;;7.65;100.00;101087.53;6276089;28;20187;-80
2023/11/16 10:05:01;;;;;;;2.55;0.70;;;;;;;7.71;100.00;101082.09;6276353;28;20052;-79
2023/11/16 10:08:08;;;;;;;0.65;0.35;;;;;;;7.74;100.00;101078.50;6262298;28;20048;-80
2023/11/16 10:11:09;;;;;;;1.42;0.20;;;;;;;7.78;100.00;101078.34;6263366;28;20185;-82
2023/11/16 10:14:12;;;;;;;7.38;0.65;;;;;;;7.75;100.00;101072.38;6266983;28;20063;-76
2023/11/16 10:17:15;;;;;;;1.45;0.52;;;;;;;7.80;100.00;101062.59;6275742;28;20060;-76
2023/11/16 10:20:17;;;;;;;1.38;0.60;;;;;;;7.80;100.00;101060.81;6275888;28;20064;-78
2023/11/16 10:23:20;;;;;;;2.05;0.50;;;;;;;7.67;100.00;101037.78;6275854;28;20132;-78
2023/11/16 10:26:22;;;;;;;6.45;0.75;;;;;;;7.57;100.00;101035.50;6275304;28;20361;-76
2023/11/16 10:29:24;;;;;;;3.20;0.70;;;;;;;7.62;100.00;101027.50;6275531;28;20057;-76
2023/11/16 10:32:29;;;;;;;0.77;0.40;;;;;;;7.74;100.00;101027.03;6275613;28;20048;-76
2023/11/16 10:35:32;;;;;;;2.83;1.00;;;;;;;7.83;100.00;101023.25;6275554;28;20199;-77
2023/11/16 10:38:36;;;;;;;3.33;0.70;;;;;;;7.71;100.00;101021.06;6275472;28;20056;-75
2023/11/16 10:41:38;;;;;;;1.10;0.50;;;;;;;7.88;100.00;101018.69;6275093;28;20052;-79
2023/11/16 10:44:42;;;;;;;1.55;0.70;;;;;;;7.99;100.00;101019.13;6275052;28;20056;-76
2023/11/16 10:47:46;;;;;;;7.20;0.50;;;;;;;8.04;100.00;101011.09;6275104;28;20135;-76
2023/11/16 10:50:48;;;;;;;4.35;0.63;;;;;;;7.96;100.00;101013.16;6275534;28;20049;-76
2023/11/16 10:53:53;;;;;;;3.10;0.60;;;;;;;8.11;100.00;101013.41;6275118;28;20451;-78
2023/11/16 10:56:55;;;;;;;0.90;0.40;;;;;;;8.19;100.00;101007.88;6275383;28;20053;-79
2023/11/16 10:59:59;;;;;;;4.72;0.80;;;;;;;8.39;100.00;101001.88;6275184;28;20369;-77
2023/11/16 11:03:03;;;;;;;2.00;0.52;;;;;;;8.53;100.00;101001.31;6275049;28;20051;-76
2023/11/16 11:06:07;;;;;;;5.35;0.73;;;;;;;8.62;100.00;101001.78;6275242;28;20052;-76
2023/11/16 11:09:09;;;;;;;2.63;0.52;;;;;;;8.53;100.00;101001.31;6274129;28;20048;-76
2023/11/16 11:12:13;;;;;;;1.20;0.60;;;;;;;8.42;100.00;100990.44;6266648;28;20049;-76
2023/11/16 11:15:29;;;;;;;4.07;0.65;;;;;;;8.67;100.00;100978.03;6267442;28;20406;-77
2023/11/16 11:18:33;;;;;;;4.18;0.40;;;;;;;8.81;100.00;100978.31;6250303;28;20045;-76
2023/11/16 11:21:35;;;;;;;1.63;0.50;;;;;;;8.71;100.00;100966.50;6250503;28;20060;-77
2023/11/16 11:24:45;;;;;;;0.75;0.50;;;;;;;8.43;100.00;100973.81;6263533;28;20571;-76
2023/11/16 11:27:46;;;;;;;;;;;;;;;8.44;100.00;100972.88;6267219;28;20049;-78
2023/11/16 11:30:52;;;;;;;2.05;0.70;;;;;;;8.54;100.00;100979.44;6270192;28;19927;-78
2023/11/16 11:33:54;;;;;;;4.38;0.38;;;;;;;8.57;100.00;100969.69;6264566;28;20516;-77
2023/11/16 11:36:56;;;;;;;3.50;0.50;;;;;;;8.55;100.00;100968.09;6274807;28;20045;-77
2023/11/16 11:39:58;;;;;;;0.50;0.40;;;;;;;8.41;100.00;100968.66;6273206;28;20351;-76
2023/11/16 11:42:59;;;;;;;0.73;0.32;;;;;;;8.32;100.00;100966.38;6263000;28;20041;-76
2023/11/16 11:46:01;;;;;;;2.50;0.40;;;;;;;8.35;100.00;100964.44;6264063;28;20119;-76
2023/11/16 11:49:06;;;;;;;0.68;0.47;;;;;;;8.42;100.00;100959.03;6274568;28;20127;-76
2023/11/16 11:52:08;;;;;;;2.53;0.60;;;;;;;8.47;100.00;100949.19;6272650;28;20452;-76
2023/11/16 11:55:11;;;;;;;1.77;0.35;;;;;;;8.45;100.00;100949.28;6267562;28;20060;-76
2023/11/16 11:58:12;;;;;;;0.40;0.30;;;;;;;8.38;100.00;100943.41;6276542;28;20045;-75
2023/11/16 12:01:14;;;;;;;3.15;0.50;;;;;;;8.27;100.00;100942.13;6255143;28;20449;-76
2023/11/16 12:04:16;;;;;;;14.27;4.50;;;;;;;8.22;100.00;100944.94;6275001;28;20049;-78
2023/11/16 12:07:18;;;;;;;6.43;1.23;;;;;;;8.06;100.00;100949.06;6278705;28;20052;-76
2023/11/16 12:10:20;;;;;;;2.25;0.60;;;;;;;8.17;100.00;100949.50;6270553;28;20441;-76
2023/11/16 12:13:21;;;;;;;2.40;0.65;;;;;;;8.12;100.00;100943.59;6278835;28;20191;-78
2023/11/16 12:16:24;;;;;;;0.30;0.30;;;;;;;8.11;100.00;100937.50;6278653;28;20053;-76
2023/11/16 12:19:27;;;;;;;1.45;0.40;;;;;;;8.12;100.00;100931.34;6278753;28;20049;-77
2023/11/16 12:22:31;;;;;;;0.30;0.30;;;;;;;8.38;100.00;100922.47;6278435;28;20445;-75
2023/11/16 12:25:34;;;;;;;1.85;0.50;;;;;;;8.49;100.00;100919.41;6278496;28;20056;-76
2023/11/16 12:28:35;;;;;;;3.17;0.43;;;;;;;8.50;100.00;100908.03;6278526;28;20053;-76
2023/11/16 12:31:38;;;;;;;0.80;0.40;;;;;;;8.44;100.00;100918.75;6278477;28;20045;-74
2023/11/16 12:34:41;;;;;;;0.98;0.45;;;;;;;8.56;100.00;100910.38;6278593;28;20045;-73
2023/11/16 12:37:43;;;;;;;0.43;0.30;;;;;;;8.30;100.00;100918.44;6278258;28;20049;-79
2023/11/16 12:40:44;;;;;;;5.10;0.50;;;;;;;8.36;100.00;100918.19;6278210;28;20482;-77
2023/11/16 12:43:46;;;;;;;0.60;0.40;;;;;;;8.39;100.00;100916.31;6278243;28;20053;-76
2023/11/16 12:46:47;;;;;;;4.00;0.63;;;;;;;8.41;100.00;100912.81;6278609;28;20064;-76
2023/11/16 12:49:51;;;;;;;3.47;0.43;;;;;;;8.27;100.00;100914.19;6278614;28;20184;-74
2023/11/16 12:52:53;;;;;;;1.35;0.65;;;;;;;8.26;100.00;100907.22;6278109;28;20365;-77
2023/11/16 12:55:57;;;;;;;0.60;0.40;;;;;;;8.35;100.00;100909.47;6278752;28;20053;-78
2023/11/16 12:58:58;;;;;;;1.30;0.40;;;;;;;8.37;100.00;100901.59;6276885;28;20044;-76
2023/11/16 13:02:00;;;;;;;2.05;0.77;;;;;;;8.38;100.00;100898.06;6272147;28;20438;-76
2023/11/16 13:05:06;;;;;;;1.85;0.50;;;;;;;8.32;100.00;100893.06;6273714;28;20365;-77
2023/11/16 13:08:07;;;;;;;1.67;0.70;;;;;;;8.33;100.00;100894.75;6268974;28;20091;-76
2023/11/16 13:11:09;;;;;;;1.23;0.40;;;;;;;8.34;100.00;100886.81;6277454;28;20057;-78
2023/11/16 13:14:10;;;;;;;3.25;1.52;;;;;;;8.47;100.00;100886.34;6268829;28;20064;-78
2023/11/16 13:17:12;;;;;;;4.45;0.90;;;;;;;8.52;100.00;100880.00;6277172;28;20442;-77
2023/11/16 13:20:14;;;;;;;5.30;1.27;;;;;;;8.49;100.00;100879.25;6277543;28;20063;-78
2023/11/16 13:23:16;;;;;;;2.53;0.73;;;;;;;8.44;100.00;100873.38;6277178;28;20045;-77
2023/11/16 13:26:17;;;;;;;3.50;0.45;;;;;;;8.39;100.00;100873.56;6277031;28;20048;-79
2023/11/16 13:29:19;;;;;;;11.43;3.47;;;;;;;8.32;100.00;100877.34;6256162;28;20050;-77
2023/11/16 13:32:20;;;;;;;31.67;8.85;;;;;;;8.30;100.00;100866.06;6251980;28;20061;-77
2023/11/16 13:35:24;;;;;;;6.07;2.38;;;;;;;8.27;100.00;100866.22;6272480;28;20045;-76
2023/11/16 13:38:27;;;;;;;2.45;0.50;;;;;;;8.17;100.00;100873.56;6270010;28;20130;-76
2023/11/16 13:41:28;;;;;;;21.30;6.38;;;;;;;8.17;100.00;100875.34;6269805;28;20053;-77
2023/11/16 13:44:31;;;;;;;8.30;3.13;;;;;;;8.10;100.00;100873.00;6268355;28;20064;-75
2023/11/16 13:47:37;;;;;;;14.20;5.13;;;;;;;8.07;100.00;100865.25;6269407;28;20053;-76
2023/11/16 13:50:41;;;;;;;1.95;0.93;;;;;;;8.04;100.00;100865.41;6276669;28;20053;-77
2023/11/16 13:53:43;;;;;;;2.28;0.50;;;;;;;8.05;100.00;100868.88;6276599;28;20048;-75
2023/11/16 13:56:48;;;;;;;2.58;0.35;;;;;;;7.91;100.00;100871.19;6276547;28;20052;-77
2023/11/16 13:59:50;;;;;;;2.67;0.90;;;;;;;7.92;100.00;100854.56;6276709;28;20048;-75
2023/11/16 14:02:52;;;;;;;5.32;1.55;;;;;;;7.96;100.00;100850.91;6276518;28;20110;-75
2023/11/16 14:05:56;;;;;;;5.68;0.52;;;;;;;7.85;100.00;100839.09;6276606;28;20048;-75
2023/11/16 14:08:58;;;;;;;3.65;0.50;;;;;;;7.86;100.00;100835.59;6277311;28;20141;-77